FA82 weather

CLOSED Good Samaritan Medical Center Heliport
West Palm Beach, Florida, United States

Public forecast

Using degrees Fahrenheit for public forecast. Weather courtesy of forecast.io.

METAR (pilot weather report)

Closest report is Palm Beach International Airport, 3.3 nm (6.1 km) SW. Retrieved 2019/09/21 11:53 UTC (52 minutes ago):

KPBI 211153Z 06013G22KT 10SM SCT026 BKN037 BKN055 27/21 A3008 RMK AO2 RAE49 SLP187 P0000 60000 70007 T02670211 10267 20261 53011 $

TAF (pilot weather forecast)

Closest forecast is Palm Beach International Airport, 3.3 nm (6.1 km) SW. Retrieved 2019/09/21 12:41 UTC (4 minutes ago):

TAF KPBI 211137Z 2112/2212 07015G25KT P6SM VCSH SCT035 SCT090 TEMPO 2112/2115 4SM SHRA BKN025 FM211500 08018G28KT P6SM VCSH SCT025 BKN050 FM220400 08015G25KT P6SM VCSH SCT025 BKN050